This is the latest recevied weather packets stored in our database for station/object K6MBY. If no packets are shown the sender has not sent any weather packets the latest 10 day(s).
| Time | Temp. | Humidity | Pressure | Rain* | Wind** | Luminosity | Snow |
|---|---|---|---|---|---|---|---|
| 1777617242 | 12.78° C | 76% | 1020 hPa | 0 mm | - | 0 W/m² | - |
| 1777616939 | 13.33° C | 75% | 1020 hPa | 0 mm | - | 0 W/m² | - |
| 1777616634 | 13.33° C | 76% | 1019.9 hPa | 0 mm | - | 0 W/m² | - |
| 1777616330 | 12.78° C | 78% | 1019.8 hPa | 0 mm | - | 0 W/m² | - |
| 1777616026 | 12.78° C | 79% | 1019.9 hPa | 0 mm | - | 0 W/m² | - |
| 1777615723 | 12.78° C | 78% | 1019.7 hPa | 0 mm | - | 0 W/m² | - |
| 1777615420 | 12.78° C | 79% | 1019.9 hPa | 0 mm | - | 0 W/m² | - |
| 1777615119 | 12.78° C | 79% | 1019.8 hPa | 0 mm | - | 0 W/m² | - |
| 1777614815 | 13.89° C | 75% | 1019.7 hPa | 0 mm | - | 0 W/m² | - |
| 1777614512 | 14.44° C | 71% | 1019.7 hPa | 0 mm | - | 0 W/m² | - |
| 1777614207 | 14.44° C | 69% | 1019.7 hPa | 0 mm | - | 0 W/m² | - |
| 1777613903 | 13.89° C | 70% | 1019.7 hPa | 0 mm | - | 0 W/m² | - |
| 1777613600 | 13.89° C | 71% | 1019.9 hPa | 0 mm | - | 0 W/m² | - |
| 1777613297 | 13.89° C | 72% | 1020.2 hPa | 0 mm | - | 0 W/m² | - |
| 1777612994 | 13.89° C | 74% | 1020.1 hPa | 0 mm | - | 0 W/m² | - |
| 1777612689 | 13.33° C | 75% | 1019.9 hPa | 0 mm | - | 0 W/m² | - |
| 1777612380 | 13.33° C | 76% | 1020.1 hPa | 0 mm | - | 0 W/m² | - |
| 1777612075 | 13.89° C | 75% | 1020.1 hPa | 0 mm | - | 0 W/m² | - |
| 1777611770 | 13.89° C | 75% | 1020.2 hPa | 0 mm | - | 0 W/m² | - |
| 1777611467 | 13.89° C | 75% | 1020.3 hPa | 0 mm | - | 0 W/m² | - |
| 1777611164 | 13.89° C | 75% | 1020.3 hPa | 0 mm | - | 0 W/m² | - |
| 1777610863 | 13.89° C | 75% | 1020.3 hPa | 0 mm | - | 0 W/m² | - |
| 1777610560 | 13.33° C | 76% | 1020.4 hPa | 0 mm | - | 0 W/m² | - |
| 1777610254 | 13.33° C | 77% | 1020.3 hPa | 0 mm | - | 0 W/m² | - |
| 1777609952 | 13.33° C | 78% | 1020.3 hPa | 0 mm | - | 0 W/m² | - |
* Rain latest hour (hover to see other rain measurements)
** Current wind speed in m/s (hover to see current wind gust speed)